Time;durP1;ratioP1;P1;durP2;ratioP2;P2;SDS_P1;SDS_P2;PMS_P1;PMS_P2;Temp;Humidity;BMP_temperature;BMP_pressure;BME280_temperature;BME280_humidity;BME280_pressure;Samples;Min_cycle;Max_cycle;Signal;HPM_P1;HPM_P2
2022/01/26 00:05:43;;;;;;;41.00;21.25;;;5.40;99.90;;;;;;5009338;28;20811;-81
2022/01/26 00:06:40;;;;;;;40.50;22.92;;;3.80;99.90;;;;;;5014907;28;20065;-81
2022/01/26 00:09:06;;;;;;;42.08;21.60;;;3.00;99.90;;;;;;5029754;28;20552;-81
2022/01/26 00:11:33;;;;;;;36.85;20.80;;;3.80;99.90;;;;;;5029125;28;20514;-81
2022/01/26 00:14:01;;;;;;;40.38;20.85;;;4.80;99.90;;;;;;5037733;28;20045;-80
2022/01/26 00:16:39;;;;;;;44.00;23.67;;;5.20;99.90;;;;;;5035063;28;20073;-80
2022/01/26 00:19:08;;;;;;;40.13;21.75;;;3.90;99.90;;;;;;5012558;28;20049;-81
2022/01/26 00:21:38;;;;;;;41.22;21.83;;;3.70;99.90;;;;;;5028876;28;20061;-81
2022/01/26 00:24:26;;;;;;;42.13;22.73;;;3.80;99.90;;;;;;5021105;28;20124;-81
2022/01/26 00:29:25;;;;;;;38.88;21.55;;;3.70;99.90;;;;;;5019924;28;20057;-81
2022/01/26 00:42:58;;;;;;;45.30;22.98;;;3.70;99.90;;;;;;5054164;28;20127;-81
2022/01/26 00:45:32;;;;;;;43.30;23.45;;;4.60;99.90;;;;;;5025704;28;20052;-81
2022/01/26 00:47:57;;;;;;;46.38;22.98;;;4.60;99.90;;;;;;5041968;28;20507;-81
2022/01/26 00:50:23;;;;;;;43.53;23.50;;;4.20;99.90;;;;;;5034613;28;20069;-81
2022/01/26 00:52:53;;;;;;;43.13;22.20;;;3.70;99.90;;;;;;5019725;28;20133;-81
2022/01/26 00:55:20;;;;;;;42.22;23.67;;;3.70;99.90;;;;;;4988658;28;20507;-81
2022/01/26 00:57:46;;;;;;;39.22;21.15;;;3.80;99.90;;;;;;5004652;28;20045;-80
2022/01/26 01:00:16;;;;;;;41.35;22.45;;;3.70;99.90;;;;;;5038154;28;20073;-81
2022/01/26 01:02:41;;;;;;;45.38;22.75;;;3.70;99.90;;;;;;5035761;28;20053;-81
2022/01/26 01:05:17;;;;;;;37.78;21.08;;;3.70;99.90;;;;;;5019918;28;20506;-81
2022/01/26 01:07:44;;;;;;;35.22;20.23;;;3.70;99.90;;;;;;5034931;28;20081;-81
2022/01/26 01:10:10;;;;;;;37.50;21.08;;;4.00;99.90;;;;;;5036797;28;20688;-81
2022/01/26 01:12:42;;;;;;;41.17;23.30;;;3.70;99.90;;;;;;5036308;28;20107;-81
2022/01/26 01:15:08;;;;;;;42.85;22.95;;;3.90;99.90;;;;;;5036559;28;20407;-81
2022/01/26 01:17:37;;;;;;;39.55;21.25;;;3.70;99.90;;;;;;5020927;28;20048;-81
2022/01/26 01:20:45;;;;;;;40.70;23.25;;;3.70;99.90;;;;;;5052926;28;20102;-81
2022/01/26 01:23:09;;;;;;;45.47;24.67;;;3.70;99.90;;;;;;5022696;28;20053;-81
2022/01/26 01:30:40;;;;;;;46.78;25.88;;;4.10;99.90;;;;;;5053020;28;20092;-81
2022/01/26 01:33:08;;;;;;;46.75;25.98;;;4.00;99.90;;;;;;5054392;28;20513;-81
2022/01/26 01:35:38;;;;;;;44.30;24.85;;;3.60;99.90;;;;;;5028194;28;20080;-82
2022/01/26 01:38:14;;;;;;;44.38;25.48;;;4.20;99.90;;;;;;5055903;28;20118;-81
2022/01/26 01:40:42;;;;;;;45.10;24.23;;;3.70;99.90;;;;;;5033285;28;20114;-81
2022/01/26 01:43:09;;;;;;;46.17;25.80;;;3.60;99.90;;;;;;5018702;28;20045;-81
2022/01/26 01:45:38;;;;;;;46.05;26.95;;;3.50;99.90;;;;;;5018727;28;20057;-81
2022/01/26 01:48:05;;;;;;;49.60;26.73;;;3.50;99.90;;;;;;5016322;28;20048;-80
2022/01/26 01:50:36;;;;;;;44.72;25.42;;;3.50;99.90;;;;;;5020211;28;20056;-81
2022/01/26 01:53:02;;;;;;;44.08;24.88;;;3.70;99.90;;;;;;5049022;28;20046;-80
2022/01/26 01:55:31;;;;;;;39.22;22.40;;;4.80;99.90;;;;;;5025630;28;20400;-80
2022/01/26 01:57:57;;;;;;;41.40;22.67;;;3.80;99.90;;;;;;5002631;28;20049;-81
2022/01/26 02:00:25;;;;;;;38.75;21.20;;;3.50;99.90;;;;;;5015915;28;20033;-80
2022/01/26 02:02:51;;;;;;;37.53;19.65;;;4.70;99.90;;;;;;5050413;28;20061;-81
2022/01/26 02:05:17;;;;;;;34.78;19.42;;;3.50;99.90;;;;;;4986356;28;20049;-80
2022/01/26 02:07:42;;;;;;;37.63;20.90;;;3.40;99.90;;;;;;5017267;28;20407;-80
2022/01/26 02:10:09;;;;;;;40.17;21.25;;;3.50;99.90;;;;;;5050258;28;20048;-80
2022/01/26 02:12:39;;;;;;;39.13;22.77;;;3.40;99.90;;;;;;5051574;28;20112;-80
2022/01/26 02:15:12;;;;;;;41.15;23.25;;;3.80;99.90;;;;;;5019811;28;20387;-80
2022/01/26 02:20:41;;;;;;;43.05;24.15;;;3.40;99.90;;;;;;5035518;28;20068;-80
2022/01/26 02:55:52;;;;;;;39.38;22.17;;;4.40;99.90;;;;;;5036951;28;20050;-80
2022/01/26 03:03:30;;;;;;;38.28;23.45;;;3.30;99.90;;;;;;5031406;28;20294;-81
2022/01/26 03:06:02;;;;;;;36.90;22.45;;;3.30;99.90;;;;;;5017444;28;20388;-80
2022/01/26 03:08:36;;;;;;;37.85;21.90;;;3.30;99.90;;;;;;5017863;28;20364;-81
2022/01/26 03:11:13;;;;;;;40.25;23.15;;;3.40;99.90;;;;;;5050169;28;20124;-81
2022/01/26 03:13:55;;;;;;;40.50;22.95;;;4.30;99.90;;;;;;5015610;28;20072;-81
2022/01/26 03:16:32;;;;;;;35.97;20.17;;;3.30;99.90;;;;;;5028838;28;20045;-80
2022/01/26 03:19:16;;;;;;;36.85;20.17;;;3.30;99.90;;;;;;5014770;28;20061;-78
2022/01/26 03:28:12;;;;;;;36.92;19.92;;;3.30;99.90;;;;;;5036935;28;20080;-80
2022/01/26 03:35:03;;;;;;;38.35;21.70;;;3.40;99.90;;;;;;5034039;28;20045;-81
2022/01/26 03:37:36;;;;;;;35.75;21.70;;;3.40;99.90;;;;;;4989482;28;20045;-80
2022/01/26 03:40:12;;;;;;;41.58;22.42;;;3.40;99.90;;;;;;5049428;28;20064;-80
2022/01/26 03:42:37;;;;;;;35.58;20.90;;;3.40;99.90;;;;;;5033562;28;20494;-80
2022/01/26 03:45:03;;;;;;;38.05;19.95;;;3.40;99.90;;;;;;5004877;28;20045;-80
2022/01/26 03:47:29;;;;;;;37.33;22.13;;;3.40;99.90;;;;;;5052371;28;20136;-80
2022/01/26 03:49:55;;;;;;;36.30;20.05;;;3.40;99.90;;;;;;5004629;28;20187;-81
2022/01/26 03:52:21;;;;;;;37.53;20.48;;;3.40;99.90;;;;;;5020239;28;20045;-80
2022/01/26 03:54:46;;;;;;;40.03;21.45;;;3.40;99.90;;;;;;5019900;28;20053;-79
2022/01/26 03:57:12;;;;;;;43.00;23.25;;;3.40;99.90;;;;;;5018829;28;20052;-81
2022/01/26 03:59:38;;;;;;;40.35;21.63;;;3.40;99.90;;;;;;5023588;28;20133;-80
2022/01/26 04:02:04;;;;;;;39.90;22.27;;;3.20;99.90;;;;;;5035459;28;20057;-80
2022/01/26 04:04:35;;;;;;;38.53;20.95;;;3.40;99.90;;;;;;5032622;28;20188;-81
2022/01/26 04:07:02;;;;;;;39.58;22.80;;;3.60;99.90;;;;;;4983814;28;20053;-80
2022/01/26 04:09:28;;;;;;;41.80;21.27;;;3.50;99.90;;;;;;5006955;28;20041;-81
2022/01/26 04:11:53;;;;;;;43.13;22.60;;;3.50;99.90;;;;;;5046541;28;20052;-81
2022/01/26 04:14:24;;;;;;;47.28;21.30;;;3.50;99.90;;;;;;5004806;28;20042;-81
2022/01/26 04:16:49;;;;;;;43.65;23.55;;;3.50;99.90;;;;;;4999355;28;20042;-80
2022/01/26 04:19:17;;;;;;;42.38;23.40;;;4.30;99.90;;;;;;5016855;28;20045;-81
2022/01/26 04:29:27;;;;;;;44.70;23.02;;;3.50;99.90;;;;;;5047064;28;20081;-80
2022/01/26 04:31:53;;;;;;;45.08;25.73;;;4.30;99.90;;;;;;5014846;28;20097;-81
2022/01/26 04:34:19;;;;;;;48.58;24.92;;;3.70;99.90;;;;;;5014389;28;20049;-81
2022/01/26 04:36:53;;;;;;;50.92;25.98;;;4.70;99.90;;;;;;5031506;28;20100;-81
2022/01/26 04:39:25;;;;;;;50.28;27.25;;;4.20;99.90;;;;;;4999498;28;20075;-81
2022/01/26 04:42:05;;;;;;;51.58;27.55;;;3.60;99.90;;;;;;5049631;28;20092;-81
2022/01/26 04:44:41;;;;;;;51.38;27.10;;;5.20;99.90;;;;;;5011756;28;20597;-81
2022/01/26 04:47:07;;;;;;;48.25;27.35;;;3.80;99.90;;;;;;4975321;28;20045;-81
2022/01/26 04:49:34;;;;;;;49.88;26.38;;;4.40;99.90;;;;;;5008966;28;20388;-80
2022/01/26 04:52:01;;;;;;;46.03;26.10;;;3.70;99.90;;;;;;5031284;28;20056;-81
2022/01/26 04:54:28;;;;;;;51.35;26.63;;;5.00;99.90;;;;;;4999497;28;20045;-80
2022/01/26 04:56:54;;;;;;;48.05;25.38;;;3.70;99.90;;;;;;4990302;28;20062;-81
2022/01/26 04:59:19;;;;;;;55.63;26.38;;;4.70;99.90;;;;;;5048979;28;20152;-81
2022/01/26 05:01:45;;;;;;;53.28;27.02;;;3.80;99.90;;;;;;5038058;28;20050;-81
2022/01/26 05:04:11;;;;;;;54.72;26.90;;;3.60;99.90;;;;;;5004739;28;20053;-81
2022/01/26 05:06:37;;;;;;;52.85;27.70;;;4.10;99.90;;;;;;5002206;28;20052;-81
2022/01/26 05:09:04;;;;;;;59.60;28.00;;;4.70;99.90;;;;;;5021297;28;20066;-81
2022/01/26 05:11:39;;;;;;;54.58;27.52;;;4.40;99.90;;;;;;5008445;28;20045;-81
2022/01/26 05:14:06;;;;;;;51.88;26.77;;;3.60;99.90;;;;;;4994562;28;20050;-81
2022/01/26 05:16:33;;;;;;;53.05;26.92;;;3.60;99.90;;;;;;5027177;28;20041;-81
2022/01/26 05:18:59;;;;;;;53.05;25.98;;;3.70;99.90;;;;;;5023506;28;20038;-81
2022/01/26 05:21:26;;;;;;;51.95;25.30;;;3.60;99.90;;;;;;5018346;28;20038;-81
2022/01/26 05:23:53;;;;;;;50.90;25.50;;;3.70;99.90;;;;;;5037541;28;20053;-81
2022/01/26 05:26:19;;;;;;;53.25;25.35;;;4.10;99.90;;;;;;5037002;28;20869;-81
2022/01/26 05:28:45;;;;;;;52.85;26.48;;;3.70;99.90;;;;;;5020498;28;20045;-81
2022/01/26 05:31:11;;;;;;;49.25;25.55;;;3.70;99.90;;;;;;4988168;28;20504;-80
2022/01/26 05:33:37;;;;;;;55.08;24.77;;;5.10;99.90;;;;;;5005287;28;20046;-80
2022/01/26 05:36:03;;;;;;;41.13;20.65;;;3.90;99.90;;;;;;5024889;28;20042;-81
2022/01/26 05:38:29;;;;;;;41.65;20.25;;;3.80;99.90;;;;;;5053773;28;20053;-81
2022/01/26 05:40:56;;;;;;;38.92;20.02;;;5.00;99.90;;;;;;5021173;28;20052;-81
2022/01/26 05:43:22;;;;;;;38.65;18.67;;;3.80;99.90;;;;;;5037062;28;20188;-81
2022/01/26 05:45:52;;;;;;;36.13;19.92;;;3.90;99.90;;;;;;5017835;28;20117;-81
2022/01/26 05:48:18;;;;;;;39.75;19.17;;;3.90;99.90;;;;;;5036916;28;20127;-81
2022/01/26 05:50:51;;;;;;;38.95;20.08;;;4.50;99.90;;;;;;5018526;28;20644;-81
2022/01/26 05:53:20;;;;;;;40.30;20.02;;;3.90;99.90;;;;;;5019286;28;20203;-80
2022/01/26 05:55:51;;;;;;;38.05;19.70;;;4.10;99.90;;;;;;5018352;28;20057;-80
2022/01/26 05:58:16;;;;;;;33.85;18.63;;;3.90;99.90;;;;;;5017298;28;20042;-80
2022/01/26 06:00:43;;;;;;;35.20;18.52;;;3.90;99.90;;;;;;5018701;28;20049;-81
2022/01/26 06:03:09;;;;;;;38.58;20.00;;;3.90;99.90;;;;;;5015347;28;20050;-80
2022/01/26 06:05:35;;;;;;;42.30;21.05;;;3.90;99.90;;;;;;5004326;28;20121;-81
2022/01/26 06:08:01;;;;;;;40.70;20.42;;;3.90;99.90;;;;;;5033673;28;20038;-81
2022/01/26 06:10:26;;;;;;;40.70;19.90;;;3.90;99.90;;;;;;5020052;28;20140;-81
2022/01/26 06:12:52;;;;;;;37.95;20.77;;;5.50;99.90;;;;;;5009226;28;20060;-80
2022/01/26 06:15:19;;;;;;;38.88;21.00;;;3.90;99.90;;;;;;5001984;28;20122;-81
2022/01/26 06:17:46;;;;;;;37.13;19.98;;;3.80;99.90;;;;;;5019562;28;20045;-81
2022/01/26 06:20:16;;;;;;;33.58;18.58;;;3.90;99.90;;;;;;5022118;28;20046;-81
2022/01/26 06:22:42;;;;;;;40.85;19.60;;;;;;;;;;5033673;28;20057;-81
2022/01/26 06:25:09;;;;;;;34.10;18.85;;;3.80;99.90;;;;;;5037095;28;20172;-80
2022/01/26 06:27:36;;;;;;;35.13;18.17;;;3.80;99.90;;;;;;4985752;28;20153;-80
2022/01/26 06:30:04;;;;;;;32.28;17.83;;;3.80;99.90;;;;;;5051900;28;20415;-80
2022/01/26 06:32:30;;;;;;;33.58;17.45;;;3.80;99.90;;;;;;5015774;28;20080;-80
2022/01/26 06:34:56;;;;;;;30.38;16.42;;;3.90;99.90;;;;;;5050495;28;20408;-80
2022/01/26 06:37:30;;;;;;;30.23;16.73;;;4.90;99.90;;;;;;5000482;28;20103;-80
2022/01/26 06:39:55;;;;;;;32.30;17.27;;;3.80;99.90;;;;;;4986435;28;22002;-80
2022/01/26 06:42:26;;;;;;;33.65;18.38;;;3.90;99.90;;;;;;5047587;28;20049;-81
2022/01/26 06:49:53;;;;;;;40.20;21.38;;;4.20;99.90;;;;;;5052948;28;20058;-79
2022/01/26 06:52:21;;;;;;;41.05;20.92;;;3.80;99.90;;;;;;5031972;28;20475;-79
2022/01/26 06:54:47;;;;;;;39.50;22.27;;;4.00;99.90;;;;;;5040491;28;20080;-80
2022/01/26 06:57:13;;;;;;;42.03;21.33;;;4.60;99.90;;;;;;5052808;28;20069;-81
2022/01/26 06:59:39;;;;;;;39.05;22.20;;;3.90;99.90;;;;;;5037381;28;20484;-81
2022/01/26 07:02:05;;;;;;;40.38;21.83;;;4.10;99.90;;;;;;5050049;28;20443;-81
2022/01/26 07:04:30;;;;;;;42.95;22.73;;;3.90;99.90;;;;;;5023673;28;20128;-80
2022/01/26 07:06:56;;;;;;;38.17;20.45;;;4.80;99.90;;;;;;5015080;28;20041;-80
2022/01/26 07:09:22;;;;;;;41.88;22.83;;;3.80;99.90;;;;;;5017161;28;20060;-80
2022/01/26 07:11:47;;;;;;;39.92;22.60;;;3.80;99.90;;;;;;5016289;28;20045;-80
2022/01/26 07:14:25;;;;;;;43.83;21.98;;;3.80;99.90;;;;;;5001589;28;20046;-80
2022/01/26 07:20:11;;;;;;;44.22;22.23;;;4.00;99.90;;;;;;5028103;28;20056;-78
2022/01/26 07:22:37;;;;;;;43.10;21.90;;;3.80;99.90;;;;;;5003491;28;20435;-81
2022/01/26 07:25:03;;;;;;;43.35;21.45;;;3.80;99.90;;;;;;5049109;28;20136;-81
2022/01/26 07:27:29;;;;;;;43.20;21.02;;;3.80;99.90;;;;;;5034892;28;20561;-81
2022/01/26 07:29:56;;;;;;;43.15;21.27;;;3.80;99.90;;;;;;5034607;28;20049;-81
2022/01/26 07:32:24;;;;;;;48.80;22.25;;;5.40;99.90;;;;;;5018701;28;20041;-80
2022/01/26 07:34:49;;;;;;;45.50;24.00;;;3.90;99.90;;;;;;5003969;28;20061;-80
2022/01/26 07:37:17;;;;;;;42.83;23.73;;;3.90;99.90;;;;;;5054115;28;20045;-81
2022/01/26 07:39:46;;;;;;;41.85;21.20;;;3.90;99.90;;;;;;5038022;28;20057;-81
2022/01/26 07:42:12;;;;;;;42.95;20.77;;;4.10;99.90;;;;;;5028760;28;20080;-81
2022/01/26 07:44:38;;;;;;;45.25;21.35;;;4.90;99.90;;;;;;5056924;28;20518;-81
2022/01/26 07:47:04;;;;;;;39.20;20.00;;;4.70;99.90;;;;;;5018876;28;20053;-80
2022/01/26 07:49:30;;;;;;;48.47;23.83;;;4.00;99.90;;;;;;5003444;28;20054;-81
2022/01/26 07:51:55;;;;;;;41.83;21.08;;;5.30;99.90;;;;;;5036383;28;20049;-81
2022/01/26 07:54:22;;;;;;;40.30;21.45;;;4.00;99.90;;;;;;4977618;28;20460;-80
2022/01/26 07:56:48;;;;;;;43.10;20.88;;;4.00;99.90;;;;;;5036731;28;20053;-80
2022/01/26 07:59:14;;;;;;;40.97;19.05;;;5.30;99.90;;;;;;5033490;28;20042;-81
2022/01/26 08:01:39;;;;;;;38.97;19.58;;;4.00;99.90;;;;;;5004451;28;20511;-81
2022/01/26 08:04:05;;;;;;;49.38;20.50;;;4.00;99.90;;;;;;5021731;28;20050;-81
2022/01/26 08:06:31;;;;;;;36.33;20.65;;;4.00;99.90;;;;;;4989485;28;20088;-81
2022/01/26 08:08:57;;;;;;;36.58;19.77;;;4.00;99.90;;;;;;5019661;28;20085;-81
2022/01/26 08:11:24;;;;;;;36.75;19.58;;;4.30;99.90;;;;;;5019211;28;20056;-80
2022/01/26 08:13:53;;;;;;;42.20;20.13;;;4.00;99.90;;;;;;5025871;28;20045;-81
2022/01/26 08:16:19;;;;;;;33.50;18.33;;;4.00;99.90;;;;;;5004858;28;20057;-81
2022/01/26 08:18:45;;;;;;;35.30;18.17;;;4.00;99.90;;;;;;5035083;28;20046;-80
2022/01/26 08:21:11;;;;;;;34.80;17.30;;;4.10;99.90;;;;;;4994075;28;20056;-81
2022/01/26 08:23:37;;;;;;;34.83;18.92;;;4.00;99.90;;;;;;5015626;28;20056;-81
2022/01/26 08:26:04;;;;;;;38.78;19.35;;;4.50;99.90;;;;;;5024821;28;20046;-81
2022/01/26 08:28:36;;;;;;;37.22;19.10;;;4.20;99.90;;;;;;5018749;28;20077;-80
2022/01/26 08:31:02;;;;;;;38.53;19.73;;;4.00;99.90;;;;;;5056787;28;20132;-80
2022/01/26 08:33:28;;;;;;;39.60;19.33;;;4.00;99.90;;;;;;4990400;28;20132;-80
2022/01/26 08:35:54;;;;;;;35.97;17.77;;;5.10;99.90;;;;;;5004567;28;20061;-80
2022/01/26 08:38:20;;;;;;;37.45;18.52;;;4.00;99.90;;;;;;4989913;28;20080;-82
2022/01/26 08:40:47;;;;;;;37.05;19.88;;;3.00;99.90;;;;;;5033266;28;20519;-81
2022/01/26 08:43:13;;;;;;;35.20;19.15;;;5.10;99.90;;;;;;5005221;28;20050;-82
2022/01/26 08:45:40;;;;;;;33.78;17.92;;;4.00;99.90;;;;;;5021159;28;20057;-81
2022/01/26 08:48:06;;;;;;;38.50;18.55;;;4.00;99.90;;;;;;5028920;28;20058;-81
2022/01/26 08:50:32;;;;;;;29.52;17.20;;;3.90;99.90;;;;;;5044860;28;20065;-81
2022/01/26 08:52:58;;;;;;;37.20;17.75;;;3.90;99.90;;;;;;5037073;28;20092;-81
2022/01/26 08:55:24;;;;;;;33.50;17.00;;;3.90;99.90;;;;;;5004110;28;20077;-81
2022/01/26 08:57:50;;;;;;;35.70;17.15;;;3.90;99.90;;;;;;5036030;28;20045;-81
2022/01/26 09:00:19;;;;;;;39.58;18.58;;;3.90;99.90;;;;;;5053597;28;20052;-81
2022/01/26 09:02:46;;;;;;;37.85;18.83;;;3.90;99.90;;;;;;5037597;28;20321;-81
2022/01/26 09:05:13;;;;;;;35.80;19.77;;;3.90;99.90;;;;;;5035594;28;20057;-81
2022/01/26 09:07:42;;;;;;;36.97;20.45;;;4.40;99.90;;;;;;5044671;28;20053;-81
2022/01/26 09:10:09;;;;;;;40.78;20.17;;;4.00;99.90;;;;;;5036893;28;20046;-81
2022/01/26 09:12:37;;;;;;;36.80;17.98;;;3.90;99.90;;;;;;5021811;28;20402;-81
2022/01/26 09:15:06;;;;;;;36.38;19.05;;;4.00;99.90;;;;;;5025658;28;20156;-81
2022/01/26 09:17:34;;;;;;;38.10;20.17;;;3.90;99.90;;;;;;5003734;28;20144;-82
2022/01/26 09:20:01;;;;;;;38.67;19.88;;;4.00;99.90;;;;;;5004251;28;20091;-81
2022/01/26 09:22:27;;;;;;;38.67;19.10;;;3.90;99.90;;;;;;5033823;28;20046;-80
2022/01/26 09:24:53;;;;;;;36.38;17.92;;;5.10;99.90;;;;;;4995256;28;20445;-81
2022/01/26 09:27:19;;;;;;;37.85;18.85;;;4.00;99.90;;;;;;5019720;28;20462;-80
2022/01/26 09:29:46;;;;;;;40.00;17.98;;;5.40;99.90;;;;;;5053528;28;20127;-80
2022/01/26 09:32:13;;;;;;;42.20;19.35;;;4.00;99.90;;;;;;5019903;28;20132;-81
2022/01/26 09:34:40;;;;;;;35.45;18.13;;;4.00;99.90;;;;;;5021316;28;20065;-80
2022/01/26 09:37:10;;;;;;;36.08;19.27;;;4.50;99.90;;;;;;5023839;28;20100;-80
2022/01/26 09:39:39;;;;;;;37.58;18.13;;;4.00;99.90;;;;;;5054895;28;20499;-80
2022/01/26 09:42:06;;;;;;;39.90;18.75;;;4.00;99.90;;;;;;5022876;28;20042;-82
2022/01/26 09:44:32;;;;;;;34.63;18.50;;;4.10;99.90;;;;;;4980280;28;20186;-82
2022/01/26 09:46:58;;;;;;;35.47;18.25;;;4.10;99.90;;;;;;5037339;28;20053;-80
2022/01/26 09:49:31;;;;;;;36.95;18.05;;;4.10;99.90;;;;;;5019290;28;20077;-81
2022/01/26 09:52:02;;;;;;;36.75;19.55;;;5.00;99.90;;;;;;5021167;28;20045;-80
2022/01/26 09:54:30;;;;;;;35.42;17.00;;;4.10;99.90;;;;;;4999420;28;20042;-79
2022/01/26 09:57:02;;;;;;;33.70;16.73;;;4.20;99.90;;;;;;5041797;28;20047;-80
2022/01/26 09:59:29;;;;;;;34.65;18.35;;;4.20;99.90;;;;;;5051274;28;20344;-80
2022/01/26 10:01:55;;;;;;;39.30;17.92;;;4.10;99.90;;;;;;5005492;28;20065;-80
2022/01/26 10:04:27;;;;;;;38.67;19.27;;;5.70;99.90;;;;;;5020812;28;20492;-81
2022/01/26 10:17:41;;;;;;;38.33;18.38;;;4.30;99.90;;;;;;5020695;28;20057;-79
2022/01/26 10:20:15;;;;;;;39.10;19.02;;;4.30;99.90;;;;;;5017981;28;20423;-83
2022/01/26 10:22:42;;;;;;;36.47;18.85;;;4.30;99.90;;;;;;5019477;28;20136;-82
2022/01/26 10:25:18;;;;;;;41.13;18.67;;;4.20;99.90;;;;;;5003683;28;20037;-82
2022/01/26 10:27:48;;;;;;;41.08;18.40;;;5.60;99.90;;;;;;5019082;28;20042;-82
2022/01/26 10:30:15;;;;;;;38.88;18.80;;;4.30;99.90;;;;;;5035730;28;20045;-84
2022/01/26 10:32:45;;;;;;;36.78;18.13;;;4.30;99.90;;;;;;5031445;28;20041;-85
2022/01/26 10:35:11;;;;;;;37.25;19.13;;;4.90;99.90;;;;;;5036738;28;20048;-83
2022/01/26 10:37:40;;;;;;;39.38;18.85;;;4.40;99.90;;;;;;5035858;28;20056;-83
2022/01/26 10:40:13;;;;;;;36.15;19.23;;;4.30;99.90;;;;;;5034719;28;20045;-82
2022/01/26 10:42:39;;;;;;;37.30;18.60;;;4.40;99.90;;;;;;5025601;28;20461;-81
2022/01/26 10:45:19;;;;;;;36.53;18.35;;;4.40;99.90;;;;;;5007109;28;20233;-81
2022/01/26 10:47:47;;;;;;;38.50;19.83;;;4.40;99.90;;;;;;5052591;28;20050;-80
2022/01/26 10:50:47;;;;;;;41.85;20.83;;;4.40;99.90;;;;;;5020039;28;20111;-82
2022/01/26 10:53:20;;;;;;;38.75;19.67;;;4.40;99.90;;;;;;5015471;28;20046;-80
2022/01/26 10:55:46;;;;;;;40.22;18.52;;;4.40;99.90;;;;;;5034116;28;20049;-83
2022/01/26 10:58:21;;;;;;;37.63;18.92;;;5.30;99.90;;;;;;5003121;28;20060;-81
2022/01/26 11:01:02;;;;;;;39.60;19.17;;;4.40;99.90;;;;;;5020995;28;20053;-81
2022/01/26 11:03:28;;;;;;;41.00;19.40;;;5.80;99.90;;;;;;5002737;28;20053;-82
2022/01/26 11:06:09;;;;;;;;;;;;;;;;;;;;;
2022/01/26 11:08:47;;;;;;;39.05;19.50;;;4.50;99.90;;;;;;5013174;28;20069;-81
2022/01/26 11:11:21;;;;;;;46.08;19.25;;;4.50;99.90;;;;;;5015005;28;20046;-84
2022/01/26 11:13:47;;;;;;;35.65;18.67;;;4.50;99.90;;;;;;5006470;28;20053;-81
2022/01/26 11:16:14;;;;;;;38.05;19.35;;;4.70;99.90;;;;;;5032015;28;20052;-82
2022/01/26 11:18:52;;;;;;;33.38;16.63;;;4.50;99.90;;;;;;5032570;28;20046;-84
2022/01/26 11:22:08;;;;;;;35.72;17.13;;;4.60;99.90;;;;;;5003146;28;20046;-84
2022/01/26 11:24:45;;;;;;;34.38;17.35;;;4.60;99.90;;;;;;4998946;28;20115;-80
2022/01/26 11:27:12;;;;;;;35.47;17.38;;;4.70;99.90;;;;;;5007523;28;20045;-81
2022/01/26 11:29:43;;;;;;;31.88;16.77;;;4.90;99.90;;;;;;5018044;28;20044;-81
2022/01/26 11:32:20;;;;;;;35.53;17.52;;;4.70;99.90;;;;;;5015750;28;20038;-80
2022/01/26 11:34:50;;;;;;;35.22;16.55;;;4.70;99.90;;;;;;5034953;28;20053;-81
2022/01/26 11:37:35;;;;;;;38.53;17.45;;;5.30;99.90;;;;;;5033458;28;20100;-80
2022/01/26 11:45:19;;;;;;;36.25;16.77;;;4.80;99.90;;;;;;5014818;28;20100;-82
2022/01/26 11:48:09;;;;;;;31.08;15.27;;;4.90;99.90;;;;;;5030587;28;20046;-82
2022/01/26 11:50:37;;;;;;;28.42;14.98;;;4.90;99.90;;;;;;5008490;28;20049;-83
2022/01/26 11:53:09;;;;;;;30.17;14.40;;;4.20;99.90;;;;;;5001229;28;20053;-82
2022/01/26 11:55:48;;;;;;;29.65;15.73;;;5.00;99.90;;;;;;5004444;28;20419;-82
2022/01/26 11:58:27;;;;;;;37.65;16.80;;;5.00;99.90;;;;;;5008014;28;20180;-82
2022/01/26 12:01:14;;;;;;;27.65;13.93;;;5.30;99.90;;;;;;5034823;28;20050;-83
2022/01/26 12:03:47;;;;;;;;;;;5.20;99.90;;;;;;5031901;28;20046;-82
2022/01/26 12:06:25;;;;;;;30.75;14.48;;;5.20;99.90;;;;;;5038052;28;19925;-81
2022/01/26 12:08:54;;;;;;;28.40;15.45;;;6.00;99.90;;;;;;5011945;28;20085;-83
2022/01/26 12:11:23;;;;;;;28.23;14.43;;;5.40;99.90;;;;;;5054464;28;20068;-81
2022/01/26 12:13:57;;;;;;;29.38;14.77;;;5.40;99.90;;;;;;5035631;28;20549;-82
2022/01/26 12:16:38;;;;;;;28.92;15.40;;;5.50;99.90;;;;;;5020448;28;20071;-81
2022/01/26 12:33:04;;;;;;;26.45;13.40;;;5.50;99.90;;;;;;5013452;28;20064;-83
2022/01/26 12:38:24;;;;;;;27.88;14.30;;;5.60;99.90;;;;;;5052989;28;20045;-83
2022/01/26 12:43:50;;;;;;;33.13;12.77;;;5.50;99.90;;;;;;5053456;28;20381;-80
2022/01/26 12:46:27;;;;;;;25.83;12.18;;;5.70;99.90;;;;;;5034408;28;20128;-80
2022/01/26 12:48:54;;;;;;;23.55;12.85;;;5.70;99.90;;;;;;5054729;28;20061;-80
2022/01/26 12:51:21;;;;;;;26.27;12.23;;;5.80;99.90;;;;;;5038386;28;20103;-80
2022/01/26 12:54:14;;;;;;;25.15;12.63;;;7.30;99.90;;;;;;5017251;28;20149;-80
2022/01/26 12:56:40;;;;;;;25.02;12.15;;;5.70;99.90;;;;;;4985691;28;20092;-79
2022/01/26 12:59:09;;;;;;;24.40;11.75;;;5.70;99.90;;;;;;5003410;28;20037;-80
2022/01/26 13:01:36;;;;;;;24.55;11.38;;;5.70;99.90;;;;;;5017595;28;20488;-80
2022/01/26 13:04:04;;;;;;;23.17;11.20;;;5.70;99.90;;;;;;5002617;28;20061;-80
2022/01/26 13:06:34;;;;;;;24.77;11.85;;;5.70;99.90;;;;;;4987583;28;20543;-81
2022/01/26 13:09:02;;;;;;;26.50;11.38;;;5.70;99.90;;;;;;5051585;28;20130;-79
2022/01/26 13:11:33;;;;;;;26.27;11.25;;;5.70;99.90;;;;;;5019342;28;20045;-79
2022/01/26 13:16:53;;;;;;;22.30;10.80;;;5.70;99.90;;;;;;5016971;28;20045;-81
2022/01/26 13:19:35;;;;;;;24.58;11.13;;;5.70;99.90;;;;;;5009933;28;20038;-81
2022/01/26 13:25:00;;;;;;;21.13;10.48;;;5.60;99.90;;;;;;5016202;28;20053;-81
2022/01/26 13:30:49;;;;;;;20.75;10.73;;;5.60;99.90;;;;;;5020431;28;20064;-81
2022/01/26 13:36:07;;;;;;;23.75;11.25;;;5.60;99.90;;;;;;5038637;28;20049;-81
2022/01/26 13:41:09;;;;;;;22.10;10.57;;;5.60;99.90;;;;;;5035627;28;20086;-80
2022/01/26 13:44:37;;;;;;;23.20;11.07;;;5.60;99.90;;;;;;5001510;28;20045;-80
2022/01/26 13:57:12;;;;;;;22.90;10.77;;;5.70;99.90;;;;;;5032462;28;20041;-81
2022/01/26 13:59:46;;;;;;;25.77;11.75;;;5.70;99.90;;;;;;5004871;28;20056;-81
2022/01/26 14:02:12;;;;;;;29.38;13.23;;;5.70;99.90;;;;;;5006011;28;20108;-82
2022/01/26 14:04:39;;;;;;;30.52;12.93;;;5.70;99.90;;;;;;5003363;28;20091;-82
2022/01/26 14:07:04;;;;;;;26.73;12.65;;;6.80;99.90;;;;;;5003771;28;20108;-81
2022/01/26 14:09:30;;;;;;;27.23;12.68;;;5.80;99.90;;;;;;5007461;28;20058;-81
2022/01/26 14:11:58;;;;;;;25.98;13.00;;;5.80;99.90;;;;;;5023726;28;20634;-82
2022/01/26 14:14:31;;;;;;;24.88;12.93;;;5.90;99.90;;;;;;5034432;28;20077;-81
2022/01/26 14:16:58;;;;;;;23.45;12.43;;;5.90;99.90;;;;;;5003943;28;20055;-81
2022/01/26 14:27:10;;;;;;;29.00;14.05;;;6.40;99.90;;;;;;5031334;28;20049;-82
2022/01/26 14:29:51;;;;;;;27.35;12.43;;;6.00;99.90;;;;;;5016366;28;20061;-81
2022/01/26 15:50:45;;;;;;;39.80;17.42;;;5.70;99.90;;;;;;5047697;28;20187;-82
2022/01/26 15:57:18;;;;;;;34.53;16.17;;;5.70;99.90;;;;;;5016195;28;20411;-82
2022/01/26 16:04:30;;;;;;;37.25;16.25;;;5.60;99.90;;;;;;5021413;28;20136;-81
2022/01/26 16:07:20;;;;;;;41.45;16.17;;;5.70;99.90;;;;;;5005637;28;20041;-82
2022/01/26 16:12:57;;;;;;;33.25;15.63;;;5.70;99.90;;;;;;5049205;28;20045;-81
2022/01/26 16:19:41;;;;;;;34.80;15.10;;;5.90;99.90;;;;;;5012623;28;20045;-82
2022/01/26 17:55:11;;;;;;;32.05;14.45;;;5.60;99.90;;;;;;5022958;28;20551;-80
2022/01/26 18:25:51;;;;;;;35.67;16.25;;;5.60;99.90;;;;;;5005407;28;20191;-81
2022/01/26 18:26:45;;;;;;;33.33;14.52;;;5.60;99.90;;;;;;5025035;28;20056;-82
2022/01/26 18:32:22;;;;;;;26.70;14.30;;;5.70;99.90;;;;;;5022777;28;20126;-81
2022/01/26 18:51:05;;;;;;;28.88;13.23;;;5.80;99.90;;;;;;5039290;28;20042;-80
2022/01/26 18:53:30;;;;;;;28.25;12.80;;;5.80;99.90;;;;;;5006768;28;20141;-82
2022/01/26 18:55:56;;;;;;;28.65;14.07;;;5.80;99.90;;;;;;4995158;28;20133;-81
2022/01/26 18:58:22;;;;;;;27.45;13.95;;;5.60;99.90;;;;;;5006024;28;20053;-81
2022/01/26 19:00:49;;;;;;;24.65;12.38;;;6.90;99.90;;;;;;4990474;28;20046;-82
2022/01/26 19:03:15;;;;;;;23.30;12.98;;;5.90;99.90;;;;;;4990192;28;20050;-81
2022/01/26 19:05:42;;;;;;;29.27;13.02;;;5.90;99.90;;;;;;4972958;28;20050;-81
2022/01/26 19:08:09;;;;;;;24.25;12.98;;;;;;;;;;4995349;28;20056;-81
2022/01/26 19:10:34;;;;;;;25.98;12.95;;;5.90;99.90;;;;;;4990980;28;20450;-81
2022/01/26 19:13:00;;;;;;;26.67;13.32;;;5.80;99.90;;;;;;5001021;28;20064;-81
2022/01/26 19:15:30;;;;;;;29.67;14.68;;;5.90;99.90;;;;;;5005756;28;20073;-80
2022/01/26 19:23:27;;;;;;;28.10;14.77;;;5.90;99.90;;;;;;5033818;28;20523;-81
2022/01/26 19:26:18;;;;;;;27.55;14.32;;;6.50;99.90;;;;;;5004241;28;20058;-82